Time;durP1;ratioP1;P1;durP2;ratioP2;P2;SDS_P1;SDS_P2;PMS_P1;PMS_P2;Temp;Humidity;BMP_temperature;BMP_pressure;BME280_temperature;BME280_humidity;BME280_pressure;Samples;Min_cycle;Max_cycle;Signal;HPM_P1;HPM_P2
2022/02/08 00:02:11;;;;;;;15.77;2.53;;;2.40;99.90;;;-146.41;100.00;57768.22;5020801;28;20045;-67
2022/02/08 00:04:38;;;;;;;10.02;2.13;;;2.30;99.90;;;-146.41;100.00;57768.22;5027015;28;20370;-68
2022/02/08 00:07:07;;;;;;;12.90;2.08;;;2.30;99.90;;;-146.41;100.00;57768.22;5021189;28;20060;-67
2022/02/08 00:09:35;;;;;;;12.65;2.30;;;2.30;99.90;;;-146.41;100.00;57768.22;5024938;28;20556;-67
2022/02/08 00:12:02;;;;;;;9.68;1.85;;;2.30;99.90;;;-146.41;100.00;57768.22;5025678;28;20061;-67
2022/02/08 00:14:29;;;;;;;10.45;2.10;;;2.30;99.90;;;-146.41;100.00;57768.22;5022882;28;20046;-68
2022/02/08 00:16:56;;;;;;;12.68;2.22;;;2.30;99.90;;;-146.41;100.00;57768.22;5025598;28;20055;-68
2022/02/08 00:19:23;;;;;;;13.13;2.17;;;2.30;99.90;;;-146.41;100.00;57768.22;5026531;28;20057;-66
2022/02/08 00:21:51;;;;;;;9.98;2.35;;;2.30;99.90;;;-146.41;100.00;57768.22;5024134;28;20081;-68
2022/02/08 00:24:18;;;;;;;23.92;2.75;;;2.20;99.90;;;-146.41;100.00;57768.22;5022659;28;20073;-69
2022/02/08 00:26:45;;;;;;;14.00;2.10;;;2.30;99.90;;;-146.41;100.00;57768.22;5025142;28;20469;-67
2022/02/08 00:29:13;;;;;;;15.68;2.30;;;2.30;99.90;;;-146.41;100.00;57768.22;5021535;28;20053;-67
2022/02/08 00:31:40;;;;;;;16.05;2.72;;;2.30;99.90;;;-146.41;100.00;57768.22;5025545;28;20056;-67
2022/02/08 00:34:07;;;;;;;10.88;2.30;;;2.30;99.90;;;-146.41;100.00;57768.22;5022908;28;20057;-67
2022/02/08 00:36:33;;;;;;;13.52;2.40;;;2.30;99.90;;;-146.41;100.00;57768.22;5023837;28;20059;-68
2022/02/08 00:39:00;;;;;;;14.15;2.75;;;2.20;99.90;;;-146.41;100.00;57768.22;5021117;28;20227;-67
2022/02/08 00:41:27;;;;;;;13.82;2.20;;;2.20;99.90;;;-146.41;100.00;57768.22;5024468;28;20144;-67
2022/02/08 00:44:03;;;;;;;10.95;2.05;;;2.20;99.90;;;-146.41;100.00;57768.22;5021318;28;20744;-67
2022/02/08 00:46:43;;;;;;;15.07;2.72;;;2.10;99.90;;;-146.41;100.00;57768.22;5022567;28;20120;-67
2022/02/08 00:49:11;;;;;;;11.85;2.15;;;2.10;99.90;;;-146.41;100.00;57768.22;5024230;28;20047;-67
2022/02/08 00:51:42;;;;;;;10.15;2.08;;;2.00;99.90;;;-146.41;100.00;57768.22;5022673;28;20136;-67
2022/02/08 00:54:11;;;;;;;15.75;2.90;;;2.00;99.90;;;-146.41;100.00;57768.22;5024148;28;20176;-67
2022/02/08 00:56:38;;;;;;;18.73;2.88;;;2.00;99.90;;;-146.41;100.00;57768.22;5023488;28;20054;-67
2022/02/08 00:59:07;;;;;;;15.00;2.60;;;2.00;99.90;;;-146.41;100.00;57768.22;5021489;28;20163;-68
2022/02/08 01:01:37;;;;;;;13.60;2.42;;;2.00;99.90;;;-146.41;100.00;57768.22;5021411;28;20049;-67
2022/02/08 01:04:09;;;;;;;12.35;2.25;;;2.00;99.90;;;-146.41;100.00;57768.22;5021002;28;20128;-67
2022/02/08 01:06:38;;;;;;;13.23;2.13;;;2.00;99.90;;;-146.41;100.00;57768.22;5027645;28;20041;-67
2022/02/08 01:09:16;;;;;;;12.27;2.13;;;2.00;99.90;;;-146.41;100.00;57768.22;5021859;28;20053;-67
2022/02/08 01:11:47;;;;;;;11.07;2.00;;;2.10;99.90;;;-146.41;100.00;57768.22;5026687;28;20071;-67
2022/02/08 01:14:15;;;;;;;11.40;2.03;;;2.10;99.90;;;-146.41;100.00;57768.22;5022406;28;20100;-67
2022/02/08 01:16:43;;;;;;;17.13;2.90;;;2.10;99.90;;;-146.41;100.00;57768.22;5027331;28;20060;-67
2022/02/08 01:19:11;;;;;;;21.92;3.10;;;2.10;99.90;;;-146.41;100.00;57768.22;5028024;28;20477;-67
2022/02/08 01:21:38;;;;;;;15.32;2.78;;;2.10;99.90;;;-146.41;100.00;57768.22;5028921;28;20053;-67
2022/02/08 01:24:05;;;;;;;12.45;2.08;;;2.10;99.90;;;-146.41;100.00;57768.22;5031853;28;20593;-67
2022/02/08 01:26:40;;;;;;;15.95;2.47;;;2.10;99.90;;;-146.41;100.00;57768.22;5031016;28;20457;-67
2022/02/08 01:29:20;;;;;;;11.32;2.72;;;2.20;99.90;;;-146.41;100.00;57768.22;5030965;28;20059;-67
2022/02/08 01:31:49;;;;;;;12.65;2.65;;;2.20;99.90;;;-146.41;100.00;57768.22;5029920;28;20422;-68
2022/02/08 01:34:42;;;;;;;19.90;2.53;;;2.20;99.90;;;-146.41;100.00;57768.22;5033963;28;20124;-67
2022/02/08 01:45:06;;;;;;;14.02;2.00;;;2.30;99.90;;;-146.41;100.00;57768.22;5033307;28;20084;-67
2022/02/08 01:47:49;;;;;;;19.92;2.63;;;2.40;99.90;;;-146.41;100.00;57768.22;5026757;28;20052;-67
2022/02/08 01:50:17;;;;;;;12.27;3.10;;;2.40;99.90;;;-146.41;100.00;57768.22;5027393;28;20063;-68
2022/02/08 01:52:44;;;;;;;12.38;2.85;;;2.40;99.90;;;-146.41;100.00;57768.22;5026653;28;20148;-68
2022/02/08 01:55:14;;;;;;;13.50;3.25;;;2.50;99.90;;;-146.41;100.00;57768.22;5021464;28;20128;-68
2022/02/08 01:57:42;;;;;;;15.43;2.67;;;2.50;99.90;;;-146.41;100.00;57768.22;5024409;28;20457;-68
2022/02/08 02:00:11;;;;;;;17.25;2.58;;;2.50;99.90;;;-146.41;100.00;57768.22;5007303;28;20064;-68
2022/02/08 02:02:40;;;;;;;15.80;2.65;;;2.50;99.90;;;-146.41;100.00;57768.22;5002925;28;20378;-68
2022/02/08 02:05:08;;;;;;;16.08;3.15;;;2.50;99.90;;;-146.41;100.00;57768.22;5008082;28;20065;-67
2022/02/08 02:07:36;;;;;;;17.55;2.53;;;2.60;99.90;;;-146.41;100.00;57768.22;5007213;28;20054;-67
2022/02/08 02:10:04;;;;;;;15.40;2.65;;;2.70;99.90;;;-146.41;100.00;57768.22;5004463;28;20044;-67
2022/02/08 02:12:32;;;;;;;11.80;2.63;;;2.70;99.90;;;-146.41;100.00;57768.22;5024298;28;20375;-68
2022/02/08 02:15:03;;;;;;;10.35;2.25;;;2.60;99.90;;;-146.41;100.00;57768.22;5020422;28;20565;-68
2022/02/08 02:17:32;;;;;;;9.27;2.50;;;2.70;99.90;;;-146.41;100.00;57768.22;5020673;28;20057;-68
2022/02/08 02:19:59;;;;;;;18.17;3.15;;;2.70;99.90;;;-146.41;100.00;57768.22;5021106;28;20155;-67
2022/02/08 02:22:29;;;;;;;16.52;2.53;;;2.70;99.90;;;-146.41;100.00;57768.22;5020217;28;20069;-68
2022/02/08 02:24:56;;;;;;;20.17;2.88;;;2.80;99.90;;;-146.41;100.00;57768.22;5023994;28;20049;-67
2022/02/08 02:27:23;;;;;;;14.73;3.13;;;2.70;99.90;;;-146.41;100.00;57768.22;5020518;28;20407;-67
2022/02/08 02:29:50;;;;;;;17.83;2.80;;;2.70;99.90;;;-146.41;100.00;57768.22;5026141;28;20037;-67
2022/02/08 02:32:17;;;;;;;18.05;3.15;;;2.80;99.90;;;-146.41;100.00;57768.22;5025904;28;20056;-67
2022/02/08 02:34:50;;;;;;;18.88;2.80;;;2.70;99.90;;;-146.41;100.00;57768.22;5025946;28;20133;-67
2022/02/08 02:37:18;;;;;;;14.02;2.58;;;2.80;99.90;;;-146.41;100.00;57768.22;5023771;28;20057;-67
2022/02/08 02:39:45;;;;;;;13.07;2.42;;;2.70;99.90;;;-146.41;100.00;57768.22;5018517;28;20081;-68
2022/02/08 02:42:14;;;;;;;17.13;2.97;;;2.70;99.90;;;-146.41;100.00;57768.22;5022630;28;20068;-67
2022/02/08 02:44:42;;;;;;;10.88;2.55;;;2.70;99.90;;;-146.41;100.00;57768.22;5022818;28;20052;-68
2022/02/08 02:47:09;;;;;;;12.98;2.35;;;2.70;99.90;;;-146.41;100.00;57768.22;5019965;28;20050;-67
2022/02/08 02:49:36;;;;;;;15.65;2.65;;;2.60;99.90;;;-146.41;100.00;57768.22;5024200;28;20049;-68
2022/02/08 02:52:06;;;;;;;16.95;3.33;;;2.60;99.90;;;-146.41;100.00;57768.22;5019444;28;20152;-68
2022/02/08 02:54:33;;;;;;;13.68;2.58;;;2.60;99.90;;;-146.41;100.00;57768.22;5021970;28;20041;-68
2022/02/08 02:57:01;;;;;;;13.95;2.72;;;2.50;99.90;;;-146.41;100.00;57768.22;5023499;28;20525;-67
2022/02/08 02:59:31;;;;;;;10.85;2.75;;;2.50;99.90;;;-146.41;100.00;57768.22;5019089;28;20056;-67
2022/02/08 03:04:34;;;;;;;13.35;2.58;;;2.50;99.90;;;-146.41;100.00;57768.22;5022626;28;20050;-68
2022/02/08 03:20:31;;;;;;;19.15;3.60;;;2.40;99.90;;;-146.41;100.00;57768.22;5022514;28;20041;-67
2022/02/08 03:22:58;;;;;;;14.38;2.35;;;2.40;99.90;;;-146.41;100.00;57768.22;5018129;28;20056;-68
2022/02/08 03:25:25;;;;;;;11.57;2.97;;;2.40;99.90;;;-146.41;100.00;57768.22;5020752;28;20045;-67
2022/02/08 03:27:52;;;;;;;16.10;3.45;;;2.40;99.90;;;-146.41;100.00;57768.22;5018151;28;20061;-67
2022/02/08 03:30:19;;;;;;;11.05;2.70;;;2.50;99.90;;;-146.41;100.00;57768.22;5019803;28;20092;-67
2022/02/08 03:32:46;;;;;;;16.50;3.15;;;2.50;99.90;;;-146.41;100.00;57768.22;5019949;28;20049;-67
2022/02/08 03:35:15;;;;;;;12.30;2.80;;;2.50;99.90;;;-146.41;100.00;57768.22;5015785;28;20137;-67
2022/02/08 03:37:55;;;;;;;15.07;2.67;;;2.50;99.90;;;-146.41;100.00;57768.22;5027389;28;20047;-68
2022/02/08 03:43:26;;;;;;;14.32;2.70;;;2.40;99.90;;;-146.41;100.00;57768.22;5022637;28;20431;-67
2022/02/08 03:45:57;;;;;;;18.00;3.05;;;2.50;99.90;;;-146.41;100.00;57768.22;5018361;28;20495;-67
2022/02/08 03:48:26;;;;;;;13.77;2.83;;;2.60;99.90;;;-146.41;100.00;57768.22;5023626;28;20045;-67
2022/02/08 03:51:07;;;;;;;20.02;2.95;;;2.60;99.90;;;-146.41;100.00;57768.22;5021500;28;20517;-68
2022/02/08 03:53:35;;;;;;;12.00;2.40;;;2.60;99.90;;;-146.41;100.00;57768.22;5020429;28;20041;-67
2022/02/08 03:56:03;;;;;;;19.05;3.13;;;2.60;99.90;;;-146.41;100.00;57768.22;5024213;28;20060;-67
2022/02/08 03:58:30;;;;;;;14.90;2.83;;;2.60;99.90;;;-146.41;100.00;57768.22;5020372;28;20513;-67
2022/02/08 04:03:33;;;;;;;17.80;3.75;;;2.80;99.90;;;-146.41;100.00;57768.22;5021029;28;20048;-67
2022/02/08 04:06:01;;;;;;;15.75;2.90;;;2.80;99.90;;;-146.41;100.00;57768.22;5020798;28;20499;-67
2022/02/08 04:08:33;;;;;;;14.40;2.83;;;2.80;99.90;;;-146.41;100.00;57768.22;5017681;28;20069;-67
2022/02/08 04:11:00;;;;;;;19.20;2.85;;;2.80;99.90;;;-146.41;100.00;57768.22;5023568;28;20132;-67
2022/02/08 04:13:45;;;;;;;14.85;2.55;;;2.90;99.90;;;-146.41;100.00;57768.22;5018429;28;20355;-67
2022/02/08 04:16:25;;;;;;;17.20;3.47;;;3.00;99.90;;;-146.41;100.00;57768.22;5018135;28;20132;-67
2022/02/08 04:33:02;;;;;;;16.20;3.15;;;3.00;99.90;;;-146.41;100.00;57768.22;5021608;28;20128;-67
2022/02/08 04:38:02;;;;;;;18.63;3.20;;;3.00;99.90;;;-146.41;100.00;57768.22;5014946;28;20133;-69
2022/02/08 04:40:51;;;;;;;14.70;2.22;;;3.00;99.90;;;-146.41;100.00;57768.22;5022879;28;20109;-68
2022/02/08 04:49:04;;;;;;;13.90;2.83;;;2.90;99.90;;;-146.41;100.00;57768.22;5004331;28;20518;-67
2022/02/08 04:51:37;;;;;;;19.40;3.22;;;2.90;99.90;;;-146.41;100.00;57768.22;5020048;28;20086;-67
2022/02/08 05:29:54;;;;;;;19.05;2.42;;;3.10;99.90;;;-146.41;100.00;57768.22;5015928;28;20443;-67
2022/02/08 05:42:47;;;;;;;9.63;1.67;;;3.30;99.90;;;-146.41;100.00;57768.22;5021733;28;20041;-68
2022/02/08 05:47:50;;;;;;;15.55;3.65;;;3.30;99.90;;;-146.41;100.00;57768.22;5018588;28;20383;-67
2022/02/08 05:55:34;;;;;;;10.27;2.72;;;3.40;99.90;;;-146.41;100.00;57768.22;5028704;28;20057;-68
2022/02/08 05:58:02;;;;;;;22.60;3.72;;;3.50;99.90;;;-146.41;100.00;57768.22;5025180;28;20403;-67
2022/02/08 06:00:30;;;;;;;15.95;2.58;;;3.50;99.90;;;-146.41;100.00;57768.22;5023579;28;20203;-67
2022/02/08 06:03:03;;;;;;;17.95;2.75;;;3.40;99.90;;;-146.41;100.00;57768.22;5024065;28;20072;-67
2022/02/08 06:05:30;;;;;;;14.45;2.45;;;3.40;99.90;;;-146.41;100.00;57768.22;5025098;28;20084;-67
2022/02/08 06:07:57;;;;;;;21.17;2.80;;;3.50;99.90;;;-146.41;100.00;57768.22;5025428;28;20636;-67
2022/02/08 06:10:25;;;;;;;16.25;2.55;;;3.60;99.90;;;-146.41;100.00;57768.22;5026178;28;20045;-67
2022/02/08 06:12:55;;;;;;;18.35;2.45;;;3.60;99.90;;;-146.41;100.00;57768.22;5025348;28;20060;-67
2022/02/08 06:15:24;;;;;;;24.13;3.13;;;3.50;99.90;;;-146.41;100.00;57768.22;5024297;28;20046;-67
2022/02/08 06:17:55;;;;;;;15.05;2.42;;;3.50;99.90;;;-146.41;100.00;57768.22;5026025;28;20168;-68
2022/02/08 06:20:23;;;;;;;18.23;2.67;;;3.50;99.90;;;-146.41;100.00;57768.22;5025719;28;20148;-67
2022/02/08 06:22:51;;;;;;;14.60;2.15;;;3.60;99.90;;;-146.41;100.00;57768.22;5025982;28;20422;-67
2022/02/08 06:25:19;;;;;;;14.52;3.45;;;3.70;99.90;;;-146.41;100.00;57768.22;5023572;28;20053;-67
2022/02/08 06:27:50;;;;;;;14.10;2.53;;;3.70;99.90;;;-146.41;100.00;57768.22;5025458;28;20135;-67
2022/02/08 06:30:21;;;;;;;21.33;2.80;;;3.70;99.90;;;-146.41;100.00;57768.22;5022247;28;20172;-68
2022/02/08 06:32:54;;;;;;;15.52;2.63;;;3.70;99.90;;;-146.41;100.00;57768.22;5022557;28;20057;-67
2022/02/08 06:35:27;;;;;;;10.27;2.17;;;3.70;99.90;;;-146.41;100.00;57768.22;5023787;28;20045;-68
2022/02/08 06:37:57;;;;;;;12.77;2.63;;;3.70;99.90;;;-146.41;100.00;57768.22;5024175;28;20315;-67
2022/02/08 06:40:24;;;;;;;18.38;2.63;;;3.60;99.90;;;-146.41;100.00;57768.22;5024934;28;20053;-67
2022/02/08 06:42:51;;;;;;;15.82;2.80;;;3.60;99.90;;;-146.41;100.00;57768.22;5024117;28;20455;-67
2022/02/08 06:45:18;;;;;;;18.90;3.53;;;3.60;99.90;;;-146.41;100.00;57768.22;5022646;28;20064;-67
2022/02/08 06:47:50;;;;;;;12.60;3.08;;;3.60;99.90;;;-146.41;100.00;57768.22;5023286;28;20045;-67
2022/02/08 06:50:18;;;;;;;16.65;2.72;;;3.60;99.90;;;-146.41;100.00;57768.22;5022659;28;20152;-67
2022/02/08 06:52:46;;;;;;;14.35;2.85;;;3.60;99.90;;;-146.41;100.00;57768.22;5023470;28;20055;-67
2022/02/08 06:55:13;;;;;;;17.88;2.90;;;3.60;99.90;;;-146.41;100.00;57768.22;5022404;28;20053;-68
2022/02/08 07:00:34;;;;;;;15.57;2.60;;;3.60;99.90;;;-146.41;100.00;57768.22;5022355;28;20621;-67
2022/02/08 07:03:11;;;;;;;19.45;3.13;;;3.70;99.90;;;-146.41;100.00;57768.22;5023046;28;20053;-67
2022/02/08 07:05:39;;;;;;;17.95;3.15;;;3.70;99.90;;;-146.41;100.00;57768.22;5019445;28;20060;-68
2022/02/08 07:08:07;;;;;;;19.60;3.15;;;3.70;99.90;;;-146.41;100.00;57768.22;5023287;28;20472;-68
2022/02/08 07:10:34;;;;;;;15.80;2.78;;;3.80;99.90;;;-146.41;100.00;57768.22;5022875;28;21858;-67
2022/02/08 07:13:06;;;;;;;17.52;3.72;;;3.70;99.90;;;-146.41;100.00;57768.22;5024368;28;20145;-67
2022/02/08 07:15:33;;;;;;;27.70;3.58;;;3.70;99.90;;;-146.41;100.00;57768.22;5022718;28;20053;-67
2022/02/08 07:18:01;;;;;;;15.15;2.95;;;3.70;99.90;;;-146.41;100.00;57768.22;5020963;28;20058;-68
2022/02/08 07:20:34;;;;;;;12.55;2.13;;;3.80;99.90;;;-146.41;100.00;57768.22;5022439;28;20057;-68
2022/02/08 07:23:02;;;;;;;17.77;3.53;;;3.80;99.90;;;-146.41;100.00;57768.22;5022917;28;20053;-68
2022/02/08 07:25:33;;;;;;;15.23;2.60;;;3.80;99.90;;;-146.41;100.00;57768.22;5024681;28;20477;-68
2022/02/08 07:28:01;;;;;;;14.25;2.47;;;3.90;99.90;;;-146.41;100.00;57768.22;5025036;28;20073;-67
2022/02/08 07:30:31;;;;;;;18.65;3.28;;;4.00;99.90;;;-146.41;100.00;57768.22;5023582;28;20141;-68
2022/02/08 07:32:58;;;;;;;13.30;2.92;;;4.00;99.90;;;-146.41;100.00;57768.22;5024656;28;20081;-67
2022/02/08 07:35:32;;;;;;;20.42;3.08;;;4.00;99.90;;;-146.41;100.00;57768.22;5024448;28;20049;-67
2022/02/08 07:38:09;;;;;;;12.57;2.78;;;4.00;99.90;;;-146.41;100.00;57768.22;5024546;28;20117;-68
2022/02/08 07:43:06;;;;;;;17.33;2.22;;;4.10;99.90;;;-146.41;100.00;57768.22;5022407;28;20536;-67
2022/02/08 07:45:33;;;;;;;15.55;2.83;;;4.10;99.90;;;-146.41;100.00;57768.22;5023534;28;20409;-68
2022/02/08 07:48:00;;;;;;;18.20;2.75;;;4.20;99.90;;;-146.41;100.00;57768.22;5024989;28;20129;-68
2022/02/08 07:50:28;;;;;;;17.25;2.80;;;4.20;99.90;;;-146.41;100.00;57768.22;5020791;28;20054;-68
2022/02/08 07:52:55;;;;;;;20.63;3.33;;;4.30;99.90;;;-146.41;100.00;57768.22;5022274;28;20071;-68
2022/02/08 07:55:22;;;;;;;15.40;2.67;;;4.30;99.90;;;-146.41;100.00;57768.22;5022615;28;20052;-67
2022/02/08 07:57:51;;;;;;;13.55;2.35;;;4.30;99.90;;;-146.41;100.00;57768.22;5022826;28;20081;-67
2022/02/08 08:00:18;;;;;;;18.30;2.70;;;4.30;99.90;;;-146.41;100.00;57768.22;5020660;28;20147;-67
2022/02/08 08:02:45;;;;;;;10.25;1.83;;;4.30;99.90;;;-146.41;100.00;57768.22;5022783;28;20060;-67
2022/02/08 08:05:13;;;;;;;9.57;2.15;;;4.30;99.90;;;-146.41;100.00;57768.22;5022398;28;20515;-68
2022/02/08 08:07:41;;;;;;;23.90;2.33;;;4.30;99.90;;;-146.41;100.00;57768.22;5005334;28;20072;-67
2022/02/08 08:10:11;;;;;;;18.38;2.95;;;4.30;99.90;;;-146.41;100.00;57768.22;5021628;28;20053;-67
2022/02/08 08:12:45;;;;;;;17.63;2.42;;;4.30;99.90;;;-146.41;100.00;57768.22;5021562;28;20056;-67
2022/02/08 08:15:25;;;;;;;13.68;2.55;;;4.30;99.90;;;-146.41;100.00;57768.22;5022203;28;20045;-68
2022/02/08 08:20:37;;;;;;;22.33;2.70;;;4.20;99.90;;;-146.41;100.00;57768.22;5021286;28;20084;-67
2022/02/08 08:23:04;;;;;;;18.48;3.30;;;4.10;99.90;;;-146.41;100.00;57768.22;5023062;28;20136;-67
2022/02/08 08:25:31;;;;;;;19.00;3.58;;;4.10;99.90;;;-146.41;100.00;57768.22;5022240;28;20361;-67
2022/02/08 08:27:58;;;;;;;26.77;4.00;;;4.00;99.90;;;-146.41;100.00;57768.22;5022961;28;20110;-67
2022/02/08 08:30:29;;;;;;;21.00;3.95;;;3.90;99.90;;;-146.41;100.00;57768.22;5020751;28;20053;-68
2022/02/08 08:32:56;;;;;;;22.45;3.85;;;3.70;99.90;;;-146.41;100.00;57768.22;5020434;28;20469;-67
2022/02/08 08:35:23;;;;;;;17.27;2.67;;;3.70;99.90;;;-146.41;100.00;57768.22;5021679;28;20057;-67
2022/02/08 08:37:57;;;;;;;22.08;4.10;;;3.60;99.90;;;-146.41;100.00;57768.22;5021249;28;20216;-68
2022/02/08 08:40:41;;;;;;;29.10;5.55;;;3.60;99.90;;;-146.41;100.00;57768.22;5021879;28;20049;-68
2022/02/08 08:51:31;;;;;;;22.83;4.35;;;3.40;99.90;;;-146.41;100.00;57768.22;5019342;28;20061;-69
2022/02/08 08:53:59;;;;;;;21.98;4.30;;;3.50;99.90;;;-146.41;100.00;57768.22;5021921;28;20081;-68
2022/02/08 08:56:26;;;;;;;15.18;3.42;;;3.50;99.90;;;-146.41;100.00;57768.22;5022207;28;20467;-68
2022/02/08 08:58:53;;;;;;;15.40;3.17;;;3.50;99.90;;;-146.41;100.00;57768.22;5023911;28;20073;-67
2022/02/08 09:01:20;;;;;;;18.00;3.58;;;3.50;99.90;;;-146.41;100.00;57768.22;5022079;28;20483;-68
2022/02/08 09:03:49;;;;;;;15.15;3.15;;;3.50;99.90;;;-146.41;100.00;57768.22;5024853;28;20073;-68
2022/02/08 09:06:20;;;;;;;;;;;3.50;99.90;;;-146.41;100.00;57768.22;5021925;28;20537;-68
2022/02/08 09:08:48;;;;;;;15.73;2.85;;;3.50;99.90;;;-146.41;100.00;57768.22;5024663;28;20309;-67
2022/02/08 09:11:49;;;;;;;14.15;2.38;;;3.50;99.90;;;-146.41;100.00;57768.22;5022138;28;20073;-67
2022/02/08 09:14:12;;;;;;;17.95;2.85;;;3.50;99.90;;;-146.41;100.00;57768.22;5021203;28;20155;-67
2022/02/08 09:29:50;;;;;;;17.58;4.00;;;3.50;99.90;;;-146.41;100.00;57768.22;5024214;28;20128;-68
2022/02/08 09:32:59;;;;;;;17.05;3.80;;;3.60;99.90;;;-146.41;100.00;57768.22;5026583;28;20543;-67
2022/02/08 09:35:08;;;;;;;18.88;4.25;;;3.60;99.90;;;-146.41;100.00;57768.22;5027557;28;20137;-67
2022/02/08 09:37:37;;;;;;;15.25;3.40;;;3.70;99.90;;;-146.41;100.00;57768.22;5023714;28;20156;-67
2022/02/08 09:40:07;;;;;;;19.83;3.58;;;3.60;99.90;;;-146.41;100.00;57768.22;5027041;28;20095;-68
2022/02/08 09:42:38;;;;;;;15.57;3.90;;;3.60;99.90;;;-146.41;100.00;57768.22;5025907;28;20056;-68
2022/02/08 09:45:11;;;;;;;15.73;3.58;;;3.60;99.90;;;-146.41;100.00;57768.22;5026398;28;20424;-68
2022/02/08 09:48:01;;;;;;;13.35;3.60;;;3.60;99.90;;;-146.41;100.00;57768.22;5024330;28;20135;-68
2022/02/08 09:50:32;;;;;;;14.93;3.17;;;3.60;99.90;;;-146.41;100.00;57768.22;5025911;28;20446;-68
2022/02/08 09:53:01;;;;;;;16.45;3.25;;;3.60;99.90;;;-146.41;100.00;57768.22;5024100;28;20513;-68
2022/02/08 09:55:36;;;;;;;11.57;3.28;;;3.60;99.90;;;-146.41;100.00;57768.22;5026345;28;20528;-68
2022/02/08 09:58:05;;;;;;;13.32;3.10;;;3.70;99.90;;;-146.41;100.00;57768.22;5025485;28;20136;-68
2022/02/08 10:00:34;;;;;;;10.85;2.85;;;3.70;99.90;;;-146.41;100.00;57768.22;5022947;28;20533;-68
2022/02/08 10:03:13;;;;;;;13.23;2.83;;;3.70;99.90;;;-146.41;100.00;57768.22;5024791;28;20110;-68
2022/02/08 10:05:46;;;;;;;10.77;2.72;;;3.70;99.90;;;-146.41;100.00;57768.22;5022500;28;20091;-68
2022/02/08 10:08:14;;;;;;;20.75;3.42;;;3.70;99.90;;;-146.41;100.00;57768.22;5025379;28;20774;-68
2022/02/08 10:10:45;;;;;;;16.75;3.70;;;3.70;99.90;;;-146.41;100.00;57768.22;5024703;28;20165;-68
2022/02/08 10:19:16;;;;;;;30.13;6.38;;;3.80;99.90;;;-146.41;100.00;57768.22;5025097;28;20144;-68
2022/02/08 10:21:48;;;;;;;14.50;4.35;;;4.00;99.90;;;-146.41;100.00;57768.22;5021185;28;20128;-68
2022/02/08 10:24:18;;;;;;;21.08;4.25;;;3.90;99.90;;;-146.41;100.00;57768.22;5021375;28;20109;-67
2022/02/08 10:29:56;;;;;;;21.65;5.82;;;4.00;99.90;;;-146.41;100.00;57768.22;5026717;28;20154;-68
2022/02/08 10:38:18;;;;;;;18.10;4.70;;;4.20;99.90;;;-146.41;100.00;57768.22;5027178;28;20140;-68
2022/02/08 10:40:46;;;;;;;16.45;5.05;;;4.10;99.90;;;-146.41;100.00;57768.22;5006152;28;20053;-68
2022/02/08 10:43:16;;;;;;;24.55;6.07;;;4.20;99.90;;;-146.41;100.00;57768.22;5021910;28;20198;-68
2022/02/08 10:45:44;;;;;;;18.52;4.13;;;4.20;99.90;;;-146.41;100.00;57768.22;5022325;28;20128;-68
2022/02/08 10:48:23;;;;;;;16.63;4.53;;;4.20;99.90;;;-146.41;100.00;57768.22;5024098;28;20423;-69
2022/02/08 10:50:55;;;;;;;17.90;4.82;;;4.10;99.90;;;-146.41;100.00;57768.22;5024919;28;20151;-68
2022/02/08 10:53:27;;;;;;;17.35;4.90;;;4.20;99.90;;;-146.41;100.00;57768.22;5026533;28;20557;-68
2022/02/08 10:56:07;;;;;;;14.38;4.55;;;4.20;99.90;;;-146.41;100.00;57768.22;5020829;28;20053;-68
2022/02/08 10:58:45;;;;;;;19.60;5.93;;;4.20;99.90;;;-146.41;100.00;57768.22;5019423;28;20084;-68
2022/02/08 11:01:19;;;;;;;18.20;5.35;;;4.30;99.90;;;-146.41;100.00;57768.22;5024147;28;20548;-68
2022/02/08 11:04:00;;;;;;;13.10;5.55;;;4.40;99.90;;;-146.41;100.00;57768.22;5023962;28;20463;-68
2022/02/08 11:06:36;;;;;;;22.80;5.60;;;4.40;99.90;;;-146.41;100.00;57768.22;5020463;28;20042;-68
2022/02/08 11:12:21;;;;;;;22.25;5.03;;;4.40;99.90;;;-146.41;100.00;57768.22;5022933;28;20037;-68
2022/02/08 11:20:20;;;;;;;18.70;5.85;;;4.50;99.90;;;-146.41;100.00;57768.22;5021908;28;20085;-68
2022/02/08 11:23:48;;;;;;;29.10;5.78;;;4.60;99.90;;;-146.41;100.00;57768.22;5019063;28;20053;-68
2022/02/08 11:26:44;;;;;;;25.13;5.85;;;4.60;99.90;;;-146.41;100.00;57768.22;5021082;28;20128;-68
2022/02/08 11:29:43;;;;;;;19.92;6.13;;;4.60;99.90;;;-146.41;100.00;57768.22;5019587;28;20079;-68
2022/02/08 12:07:56;;;;;;;18.23;5.10;;;5.00;99.90;;;-146.41;100.00;57768.22;5018962;28;20045;-68
2022/02/08 12:10:37;;;;;;;23.48;5.43;;;5.00;99.90;;;-146.41;100.00;57768.22;5023972;28;20088;-68
2022/02/08 12:28:32;;;;;;;26.30;6.55;;;5.10;99.90;;;-146.41;100.00;57768.22;5019662;28;20070;-68
2022/02/08 13:02:54;;;;;;;22.00;5.32;;;5.40;99.90;;;-146.41;100.00;57768.22;5023473;28;20061;-67
2022/02/08 14:07:06;;;;;;;17.15;4.55;;;5.40;99.90;;;-146.41;100.00;57768.22;5024505;28;20107;-68
2022/02/08 14:25:19;;;;;;;15.15;4.75;;;5.50;99.90;;;-146.41;100.00;57768.22;5018939;28;20217;-68
2022/02/08 15:08:17;;;;;;;7.93;4.65;;;5.80;99.90;;;-146.41;100.00;57768.22;5025966;28;20091;-68
2022/02/08 15:10:56;;;;;;;9.95;3.58;;;5.90;99.90;;;-146.41;100.00;57768.22;5026146;28;20133;-69
2022/02/08 15:13:26;;;;;;;6.32;3.70;;;5.80;99.90;;;-146.41;100.00;57768.22;5024364;28;20132;-68
2022/02/08 15:16:14;;;;;;;6.85;3.60;;;5.80;99.90;;;-146.41;100.00;57768.22;5022647;28;20126;-68
2022/02/08 15:18:41;;;;;;;9.43;4.03;;;5.90;99.90;;;-146.41;100.00;57768.22;5023087;28;20049;-69
2022/02/08 15:21:16;;;;;;;13.65;4.32;;;5.90;99.90;;;-146.41;100.00;57768.22;5018935;28;20132;-69
2022/02/08 15:23:43;;;;;;;7.75;3.90;;;6.00;99.90;;;-146.41;100.00;57768.22;5020192;28;20108;-68
2022/02/08 15:26:10;;;;;;;8.50;4.65;;;6.00;99.90;;;-146.41;100.00;57768.22;5018959;28;20053;-69
2022/02/08 15:28:38;;;;;;;10.13;4.25;;;6.00;99.90;;;-146.41;100.00;57768.22;5020340;28;20045;-66
2022/02/08 15:31:05;;;;;;;10.15;5.88;;;6.00;99.90;;;-146.41;100.00;57768.22;5027552;28;20152;-69
2022/02/08 15:33:32;;;;;;;9.68;4.53;;;5.90;99.90;;;-146.41;100.00;57768.22;5023384;28;20136;-67
2022/02/08 15:35:59;;;;;;;15.35;6.88;;;5.90;99.90;;;-146.41;100.00;57768.22;5026533;28;20132;-67
2022/02/08 15:38:30;;;;;;;6.03;3.67;;;5.90;99.90;;;-146.41;100.00;57768.22;5022925;28;20057;-67
2022/02/08 15:40:59;;;;;;;7.43;4.50;;;6.00;99.90;;;-146.41;100.00;57768.22;5017619;28;20050;-67
2022/02/08 15:43:27;;;;;;;12.60;4.78;;;5.90;99.90;;;-146.41;100.00;57768.22;5022027;28;20164;-68
2022/02/08 15:46:05;;;;;;;11.75;4.93;;;6.00;99.90;;;-146.41;100.00;57768.22;5022498;28;20128;-68
2022/02/08 15:48:34;;;;;;;9.45;5.00;;;6.00;99.90;;;-146.41;100.00;57768.22;5024457;28;20536;-69
2022/02/08 15:51:15;;;;;;;9.90;3.60;;;6.00;99.90;;;-146.41;100.00;57768.22;5015834;28;20137;-68
2022/02/08 16:06:57;;;;;;;10.82;4.53;;;6.00;99.90;;;-146.41;100.00;57768.22;5021552;28;20156;-68
2022/02/08 16:12:26;;;;;;;11.88;6.00;;;6.20;99.90;;;-146.41;100.00;57768.22;5004565;28;20128;-68
2022/02/08 16:17:36;;;;;;;11.40;5.65;;;6.10;99.90;;;-146.41;100.00;57768.22;5025897;28;20108;-68
2022/02/08 16:54:57;;;;;;;11.32;6.25;;;6.10;99.90;;;-146.41;100.00;57768.22;5018988;28;20049;-67
2022/02/08 16:57:38;;;;;;;12.20;7.05;;;6.10;99.90;;;-146.41;100.00;57768.22;5021238;28;20069;-68
2022/02/08 17:00:08;;;;;;;16.90;7.90;;;6.10;99.90;;;-146.41;100.00;57768.22;5022035;28;20075;-68
2022/02/08 17:02:40;;;;;;;15.25;6.88;;;6.20;99.90;;;-146.41;100.00;57768.22;5020730;28;20144;-68
2022/02/08 17:05:08;;;;;;;15.32;6.85;;;6.10;99.90;;;-146.41;100.00;57768.22;5018148;28;20048;-68
2022/02/08 17:07:38;;;;;;;16.20;6.85;;;6.10;99.90;;;-146.41;100.00;57768.22;5017454;28;20050;-68
2022/02/08 17:10:13;;;;;;;10.68;5.65;;;6.10;99.90;;;-146.41;100.00;57768.22;5020471;28;20049;-68